Time;durP1;ratioP1;P1;durP2;ratioP2;P2;SDS_P1;SDS_P2;PMS_P1;PMS_P2;Temp;Humidity;BMP_temperature;BMP_pressure;BME280_temperature;BME280_humidity;BME280_pressure;Samples;Min_cycle;Max_cycle;Signal;HPM_P1;HPM_P2
2023/04/12 00:00:43;;;;;;;6.43;1.35;;;8.50;99.90;;;;;;4843141;29;20421;-93
2023/04/12 00:03:14;;;;;;;8.07;1.38;;;8.20;99.90;;;;;;4842573;29;20564;-94
2023/04/12 00:05:45;;;;;;;7.05;1.40;;;8.00;99.90;;;;;;4843018;29;20427;-91
2023/04/12 00:08:17;;;;;;;10.13;1.77;;;8.00;99.90;;;;;;4841454;29;20870;-92
2023/04/12 00:10:42;;;;;;;7.78;1.63;;;8.50;99.90;;;;;;4842494;29;20421;-91
2023/04/12 00:13:08;;;;;;;8.00;1.40;;;7.80;99.90;;;;;;4841380;29;20492;-93
2023/04/12 00:15:34;;;;;;;7.50;1.50;;;8.10;99.90;;;;;;4841453;29;20429;-93
2023/04/12 00:17:59;;;;;;;8.98;1.60;;;7.80;99.90;;;;;;4842519;29;20435;-93
2023/04/12 00:20:26;;;;;;;8.00;1.40;;;7.60;99.90;;;;;;4841349;29;20459;-93
2023/04/12 00:22:52;;;;;;;10.27;1.40;;;8.10;99.90;;;;;;4841925;29;20497;-93
2023/04/12 00:25:18;;;;;;;7.07;1.87;;;8.10;99.90;;;;;;4840707;29;20417;-92
2023/04/12 00:27:44;;;;;;;7.53;1.50;;;7.90;99.90;;;;;;4842419;29;20436;-93
2023/04/12 00:30:10;;;;;;;7.13;1.60;;;8.10;99.90;;;;;;4841844;29;20509;-93
2023/04/12 00:32:36;;;;;;;8.32;1.85;;;8.00;99.90;;;;;;4843173;29;20429;-93
2023/04/12 00:35:02;;;;;;;7.78;1.48;;;8.10;99.90;;;;;;4844972;29;20455;-93
2023/04/12 00:37:28;;;;;;;9.33;1.77;;;8.00;99.90;;;;;;4844673;29;20504;-92
2023/04/12 00:39:53;;;;;;;7.18;1.52;;;8.20;99.90;;;;;;4845259;29;20417;-91
2023/04/12 00:42:20;;;;;;;10.33;2.07;;;8.20;99.90;;;;;;4844480;29;21084;-91
2023/04/12 00:44:45;;;;;;;7.32;1.70;;;8.20;99.90;;;;;;4845875;29;20424;-90
2023/04/12 00:47:11;;;;;;;8.87;1.90;;;8.20;99.90;;;;;;4844063;29;20494;-92
2023/04/12 00:49:37;;;;;;;7.93;1.60;;;8.70;99.90;;;;;;4847254;29;20489;-91
2023/04/12 00:52:13;;;;;;;8.38;1.77;;;8.30;99.90;;;;;;4844591;29;20432;-94
2023/04/12 00:54:39;;;;;;;7.15;1.85;;;8.40;99.90;;;;;;4844862;29;20540;-91
2023/04/12 00:57:05;;;;;;;8.50;2.20;;;8.90;99.90;;;;;;4863551;29;20427;-92
2023/04/12 00:59:31;;;;;;;8.60;1.95;;;8.40;99.90;;;;;;4863794;29;20426;-93
2023/04/12 01:01:58;;;;;;;6.97;1.90;;;8.50;99.90;;;;;;4863988;29;20437;-92
2023/04/12 01:04:25;;;;;;;8.57;1.73;;;9.00;99.90;;;;;;4872278;29;20860;-92
2023/04/12 01:07:04;;;;;;;8.27;1.77;;;8.90;99.90;;;;;;4872000;29;20518;-95
2023/04/12 01:09:44;;;;;;;8.45;1.90;;;8.40;99.90;;;;;;4879453;29;20515;-93
2023/04/12 01:12:10;;;;;;;8.10;1.98;;;8.40;99.90;;;;;;4862650;29;20427;-94
2023/04/12 01:14:56;;;;;;;7.82;1.80;;;8.60;99.90;;;;;;4863981;29;20529;-93
2023/04/12 01:17:28;;;;;;;9.90;2.22;;;8.80;99.90;;;;;;4853702;29;20429;-95
2023/04/12 01:20:12;;;;;;;9.30;2.08;;;8.40;99.90;;;;;;4878909;29;20749;-93
2023/04/12 01:23:13;;;;;;;7.45;1.70;;;8.40;99.90;;;;;;4878237;29;21039;-91
2023/04/12 01:26:14;;;;;;;8.80;2.17;;;8.40;99.90;;;;;;4896804;29;20458;-93
2023/04/12 01:28:42;;;;;;;8.38;2.00;;;8.40;99.90;;;;;;4900922;29;20432;-91
2023/04/12 01:31:12;;;;;;;9.43;2.00;;;8.50;99.90;;;;;;4882367;29;20413;-92
2023/04/12 01:33:42;;;;;;;9.48;2.20;;;8.50;99.90;;;;;;4883272;29;20624;-93
2023/04/12 01:36:20;;;;;;;8.17;2.70;;;8.30;99.90;;;;;;4883265;29;20413;-93
2023/04/12 01:38:49;;;;;;;8.73;2.00;;;8.30;99.90;;;;;;4886295;29;20712;-93
2023/04/12 01:41:20;;;;;;;9.68;2.55;;;8.80;99.90;;;;;;4884280;29;20417;-92
2023/04/12 01:44:06;;;;;;;9.27;2.55;;;8.20;99.90;;;;;;4880280;29;20431;-94
2023/04/12 01:46:33;;;;;;;11.90;3.00;;;8.40;99.90;;;;;;4857033;29;21016;-93
2023/04/12 01:49:11;;;;;;;8.98;2.00;;;8.70;99.90;;;;;;4866832;29;20415;-94
2023/04/12 01:52:10;;;;;;;6.95;1.92;;;8.70;99.90;;;;;;4871616;29;20431;-91
2023/04/12 01:54:43;;;;;;;11.13;2.58;;;8.30;99.90;;;;;;4880666;29;20446;-93
2023/04/12 01:57:09;;;;;;;8.57;2.30;;;8.30;99.90;;;;;;4870840;29;20815;-93
2023/04/12 01:59:47;;;;;;;7.22;2.15;;;8.30;99.90;;;;;;4867967;29;20423;-92
2023/04/12 02:02:13;;;;;;;6.22;1.90;;;8.40;99.90;;;;;;4868626;29;20928;-92
2023/04/12 02:04:40;;;;;;;9.60;2.17;;;8.30;99.90;;;;;;4866225;29;20423;-93
2023/04/12 02:07:10;;;;;;;8.30;1.92;;;8.50;99.90;;;;;;4868983;29;20438;-93
2023/04/12 02:09:44;;;;;;;9.05;2.00;;;8.30;99.90;;;;;;4852172;29;20499;-94
2023/04/12 02:12:11;;;;;;;6.18;1.63;;;8.30;99.90;;;;;;4849772;29;20429;-94
2023/04/12 02:14:43;;;;;;;10.00;2.30;;;8.40;99.90;;;;;;4847336;29;20480;-93
2023/04/12 02:17:11;;;;;;;8.18;1.88;;;8.60;99.90;;;;;;4846968;29;20448;-93
2023/04/12 02:19:37;;;;;;;9.60;2.15;;;8.50;99.90;;;;;;4848813;29;20420;-94
2023/04/12 02:22:04;;;;;;;8.68;2.17;;;8.50;99.90;;;;;;4847463;29;20428;-92
2023/04/12 02:24:30;;;;;;;7.22;1.98;;;8.40;99.90;;;;;;4846433;29;20417;-93
2023/04/12 02:26:58;;;;;;;7.82;1.85;;;8.60;99.90;;;;;;4848574;29;20798;-95
2023/04/12 02:29:26;;;;;;;9.67;2.17;;;9.00;99.90;;;;;;4848882;29;20457;-93
2023/04/12 02:31:52;;;;;;;7.63;1.80;;;8.40;99.90;;;;;;4849078;29;20445;-94
2023/04/12 02:34:30;;;;;;;6.55;1.95;;;8.40;99.90;;;;;;4849840;29;20440;-94
2023/04/12 02:36:56;;;;;;;7.20;1.67;;;8.60;99.90;;;;;;4866406;29;20433;-92
2023/04/12 02:39:24;;;;;;;7.32;1.50;;;8.50;99.90;;;;;;4849411;29;20468;-95
2023/04/12 02:41:53;;;;;;;8.95;1.90;;;8.80;99.90;;;;;;4848947;29;20483;-92
2023/04/12 02:44:23;;;;;;;9.32;2.22;;;8.60;99.90;;;;;;4851333;29;20437;-94
2023/04/12 02:46:49;;;;;;;8.52;2.15;;;8.60;99.90;;;;;;4849538;29;20968;-92
2023/04/12 02:49:20;;;;;;;7.57;1.83;;;8.40;99.90;;;;;;4854230;29;20417;-95
2023/04/12 02:52:01;;;;;;;6.53;2.00;;;8.60;99.90;;;;;;4853798;29;21013;-95
2023/04/12 02:54:27;;;;;;;7.07;1.67;;;8.40;99.90;;;;;;4853453;29;20616;-93
2023/04/12 02:57:00;;;;;;;8.03;2.00;;;8.50;99.90;;;;;;4887637;29;20916;-93
2023/04/12 02:59:57;;;;;;;6.30;1.98;;;8.70;99.90;;;;;;4887198;29;20419;-96
2023/04/12 03:02:37;;;;;;;7.55;2.08;;;8.30;99.90;;;;;;4890022;29;20510;-95
2023/04/12 03:05:07;;;;;;;7.53;1.80;;;8.50;99.90;;;;;;4871419;29;20475;-93
2023/04/12 03:07:36;;;;;;;4.45;1.23;;;8.40;99.90;;;;;;4841615;29;20427;-91
2023/04/12 03:10:06;;;;;;;7.10;1.88;;;8.70;99.90;;;;;;4873387;29;20437;-93
2023/04/12 03:12:44;;;;;;;6.95;1.58;;;8.50;99.90;;;;;;4872476;29;20472;-93
2023/04/12 03:15:22;;;;;;;5.03;1.20;;;8.30;99.90;;;;;;4872885;29;20447;-92
2023/04/12 03:17:54;;;;;;;6.55;1.48;;;8.40;99.90;;;;;;4886056;29;20423;-92
2023/04/12 03:20:42;;;;;;;8.50;2.10;;;8.50;99.90;;;;;;4877942;29;20459;-93
2023/04/12 03:23:14;;;;;;;6.03;1.70;;;8.40;99.90;;;;;;4873575;29;20429;-96
2023/04/12 03:29:11;;;;;;;4.80;1.70;;;8.40;99.90;;;;;;4872697;29;21102;-94
2023/04/12 03:31:43;;;;;;;5.53;1.80;;;8.30;99.90;;;;;;4857458;29;20437;-94
2023/04/12 03:34:28;;;;;;;;;;;;;;;;;;;;;
2023/04/12 03:37:05;;;;;;;6.57;2.10;;;8.30;99.90;;;;;;4868322;29;20460;-93
2023/04/12 03:39:35;;;;;;;8.07;2.27;;;8.60;99.90;;;;;;4859428;29;20411;-94
2023/04/12 03:42:15;;;;;;;8.53;2.10;;;8.30;99.90;;;;;;4856364;29;20424;-94
2023/04/12 03:45:17;;;;;;;6.43;2.28;;;8.30;99.90;;;;;;4894265;29;20417;-94
2023/04/12 03:47:46;;;;;;;5.38;2.00;;;8.30;99.90;;;;;;4892981;29;20429;-94
2023/04/12 03:50:58;;;;;;;8.30;1.90;;;8.30;99.90;;;;;;4890540;29;20417;-93
2023/04/12 03:53:31;;;;;;;5.30;1.73;;;8.30;99.90;;;;;;4888009;29;20866;-93
2023/04/12 03:56:02;;;;;;;7.32;2.20;;;8.20;99.90;;;;;;4883849;29;20458;-94
2023/04/12 03:58:53;;;;;;;8.02;2.00;;;8.20;99.90;;;;;;4908964;29;20416;-94
2023/04/12 04:01:46;;;;;;;5.15;1.60;;;8.20;99.90;;;;;;4884097;29;20476;-93
2023/04/12 04:04:12;;;;;;;7.00;1.50;;;8.20;99.90;;;;;;4883296;29;20409;-93
2023/04/12 04:06:41;;;;;;;6.57;1.75;;;8.40;99.90;;;;;;4881732;29;20463;-94
2023/04/12 04:09:07;;;;;;;7.50;1.80;;;8.20;99.90;;;;;;4883042;29;20506;-94
2023/04/12 04:11:32;;;;;;;6.40;1.65;;;8.10;99.90;;;;;;4882561;29;20449;-94
2023/04/12 04:14:14;;;;;;;7.37;1.97;;;8.40;99.90;;;;;;4883145;29;20488;-94
2023/04/12 04:16:42;;;;;;;8.40;1.92;;;8.10;99.90;;;;;;4882839;29;20460;-93
2023/04/12 04:19:11;;;;;;;7.40;1.95;;;8.10;99.90;;;;;;4888871;29;20506;-95
2023/04/12 04:22:04;;;;;;;7.15;1.52;;;8.20;99.90;;;;;;4888765;29;20413;-95
2023/04/12 04:25:04;;;;;;;7.40;1.50;;;8.10;99.90;;;;;;4898098;29;20467;-94
2023/04/12 04:31:18;;;;;;;6.22;1.67;;;8.10;99.90;;;;;;4926432;29;20444;-94
2023/04/12 04:33:47;;;;;;;6.50;2.00;;;8.50;99.90;;;;;;4891193;29;20589;-91
2023/04/12 04:36:19;;;;;;;6.35;2.40;;;8.10;99.90;;;;;;4893924;29;20416;-93
2023/04/12 04:45:37;;;;;;;8.32;2.70;;;7.90;99.90;;;;;;4909696;29;20418;-94
2023/04/12 04:48:13;;;;;;;8.20;2.97;;;7.90;99.90;;;;;;4874134;29;20431;-93
2023/04/12 04:51:14;;;;;;;10.05;3.22;;;7.90;99.90;;;;;;4870853;29;20495;-93
2023/04/12 04:59:51;;;;;;;12.20;4.22;;;7.80;99.90;;;;;;4924467;29;20484;-94
2023/04/12 05:02:21;;;;;;;8.57;3.90;;;7.80;99.90;;;;;;4887777;29;20446;-93
2023/04/12 05:08:30;;;;;;;12.02;5.63;;;7.70;99.90;;;;;;4905835;29;20426;-91
2023/04/12 05:11:05;;;;;;;12.02;5.50;;;7.70;99.90;;;;;;4872417;29;20438;-95
2023/04/12 05:13:34;;;;;;;12.32;7.03;;;7.60;99.90;;;;;;4868997;29;20438;-95
2023/04/12 05:16:07;;;;;;;13.93;7.70;;;7.60;99.90;;;;;;4884091;29;20421;-93
2023/04/12 05:18:42;;;;;;;13.00;8.93;;;7.70;99.90;;;;;;4888961;29;20437;-92
2023/04/12 05:21:27;;;;;;;13.50;9.68;;;8.20;99.90;;;;;;4873265;29;20423;-94
2023/04/12 05:23:53;;;;;;;15.95;10.38;;;7.70;99.90;;;;;;4870788;29;20427;-92
2023/04/12 05:26:28;;;;;;;18.45;12.82;;;7.70;99.90;;;;;;4891962;29;20513;-95
2023/04/12 05:29:16;;;;;;;18.95;13.05;;;7.70;99.90;;;;;;4870236;29;20554;-95
2023/04/12 05:31:45;;;;;;;19.67;14.07;;;7.70;99.90;;;;;;4869948;29;20513;-93
2023/04/12 05:34:11;;;;;;;19.00;13.55;;;7.50;99.90;;;;;;4865995;29;20451;-94
2023/04/12 05:36:39;;;;;;;19.25;14.25;;;7.70;99.90;;;;;;4893101;29;20412;-93
2023/04/12 05:39:09;;;;;;;19.47;14.93;;;7.50;99.90;;;;;;4907489;29;20415;-94
2023/04/12 05:41:34;;;;;;;22.17;16.42;;;7.70;99.90;;;;;;4886663;29;20488;-94
2023/04/12 05:44:02;;;;;;;24.87;17.87;;;7.80;99.90;;;;;;4886636;29;20417;-93
2023/04/12 05:46:28;;;;;;;21.27;15.18;;;8.30;99.90;;;;;;4886944;29;20423;-94
2023/04/12 05:48:55;;;;;;;22.60;16.38;;;7.60;99.90;;;;;;4889236;29;20469;-91
2023/04/12 05:51:22;;;;;;;22.35;16.40;;;7.70;99.90;;;;;;4888276;29;20504;-95
2023/04/12 05:53:47;;;;;;;23.17;16.95;;;7.80;99.90;;;;;;4884585;29;20456;-93
2023/04/12 05:56:13;;;;;;;23.92;17.10;;;7.80;99.90;;;;;;4880596;29;20782;-94
2023/04/12 05:58:39;;;;;;;22.27;16.90;;;7.80;99.90;;;;;;4881679;29;20426;-94
2023/04/12 06:01:04;;;;;;;25.60;17.75;;;7.70;99.90;;;;;;4882022;29;20432;-95
2023/04/12 06:03:31;;;;;;;26.70;18.38;;;7.60;99.90;;;;;;4882762;29;20429;-92
2023/04/12 06:06:01;;;;;;;20.92;16.38;;;8.10;99.90;;;;;;4886392;29;20496;-92
2023/04/12 06:08:33;;;;;;;23.67;17.65;;;7.60;99.90;;;;;;4863582;29;20426;-95
2023/04/12 06:10:59;;;;;;;23.10;16.13;;;7.80;99.90;;;;;;4867967;29;20427;-95
2023/04/12 06:13:24;;;;;;;24.13;18.83;;;7.60;99.90;;;;;;4866248;29;20430;-94
2023/04/12 06:15:56;;;;;;;20.00;16.50;;;7.70;99.90;;;;;;4864820;29;20431;-94
2023/04/12 06:18:21;;;;;;;20.60;16.33;;;7.80;99.90;;;;;;4861332;29;20534;-93
2023/04/12 06:20:50;;;;;;;25.20;18.13;;;7.70;99.90;;;;;;4863538;29;20431;-94
2023/04/12 06:23:17;;;;;;;21.27;15.57;;;7.90;99.90;;;;;;4865069;29;20411;-94
2023/04/12 06:25:43;;;;;;;21.08;16.35;;;7.70;99.90;;;;;;4864738;29;20419;-94
2023/04/12 06:28:08;;;;;;;18.80;14.67;;;8.20;99.90;;;;;;4862201;29;20521;-92
2023/04/12 06:30:34;;;;;;;22.38;16.40;;;8.00;99.90;;;;;;4861321;29;20430;-93
2023/04/12 06:33:00;;;;;;;19.30;15.23;;;7.90;99.90;;;;;;4860788;29;20419;-92
2023/04/12 06:35:26;;;;;;;24.33;18.15;;;8.00;99.90;;;;;;4860846;29;20443;-93
2023/04/12 06:37:51;;;;;;;25.17;19.87;;;7.70;99.90;;;;;;4861424;29;20437;-94
2023/04/12 06:40:17;;;;;;;20.33;16.83;;;8.40;99.90;;;;;;4864266;29;20415;-92
2023/04/12 06:42:46;;;;;;;19.02;16.77;;;7.80;99.90;;;;;;4878767;29;20509;-93
2023/04/12 06:45:15;;;;;;;17.52;14.85;;;7.90;99.90;;;;;;4878953;29;20438;-93
2023/04/12 06:47:40;;;;;;;15.18;13.15;;;8.20;99.90;;;;;;4878336;29;20435;-92
2023/04/12 06:50:09;;;;;;;15.67;12.20;;;7.90;99.90;;;;;;4879950;29;20437;-95
2023/04/12 06:52:35;;;;;;;15.73;12.53;;;7.70;99.90;;;;;;4879905;29;20580;-92
2023/04/12 06:55:01;;;;;;;16.50;12.83;;;7.90;99.90;;;;;;4878847;29;20961;-95
2023/04/12 06:57:26;;;;;;;15.88;12.23;;;7.90;99.90;;;;;;4877544;29;20471;-93
2023/04/12 06:59:52;;;;;;;16.80;14.10;;;8.00;99.90;;;;;;4877627;29;20435;-95
2023/04/12 07:02:21;;;;;;;18.70;14.37;;;7.80;99.90;;;;;;4878592;29;21204;-94
2023/04/12 07:04:58;;;;;;;16.27;14.52;;;7.70;99.90;;;;;;4881366;29;20415;-94
2023/04/12 07:07:30;;;;;;;15.68;13.65;;;7.60;99.90;;;;;;4864062;29;20783;-94
2023/04/12 07:09:59;;;;;;;17.02;13.80;;;8.00;99.90;;;;;;4861955;29;20472;-93
2023/04/12 07:12:25;;;;;;;19.75;16.25;;;7.80;99.90;;;;;;4875298;29;20497;-94
2023/04/12 07:14:50;;;;;;;17.60;15.70;;;7.90;99.90;;;;;;4877473;29;21183;-94
2023/04/12 07:17:16;;;;;;;18.93;15.30;;;8.00;99.90;;;;;;4876112;29;20423;-93
2023/04/12 07:19:43;;;;;;;22.73;17.75;;;8.00;99.90;;;;;;4876745;29;20781;-94
2023/04/12 07:22:09;;;;;;;18.65;16.63;;;8.00;99.90;;;;;;4888852;29;20463;-94
2023/04/12 07:24:34;;;;;;;17.45;15.52;;;8.20;99.90;;;;;;4898164;29;20963;-92
2023/04/12 07:27:00;;;;;;;20.63;17.08;;;8.30;99.90;;;;;;4897340;29;21124;-93
2023/04/12 07:29:26;;;;;;;20.73;18.40;;;7.80;99.90;;;;;;4897326;29;20412;-92
2023/04/12 07:31:51;;;;;;;19.77;17.30;;;8.40;99.90;;;;;;4898664;29;20411;-93
2023/04/12 07:34:17;;;;;;;20.55;17.40;;;8.10;99.90;;;;;;4897567;29;20436;-93
2023/04/12 07:36:48;;;;;;;21.83;18.13;;;8.40;99.90;;;;;;4900185;29;20924;-93
2023/04/12 07:39:14;;;;;;;19.83;17.75;;;7.80;99.90;;;;;;4898035;29;20526;-94
2023/04/12 07:41:45;;;;;;;20.23;18.13;;;7.90;99.90;;;;;;4885902;29;20425;-92
2023/04/12 07:44:11;;;;;;;18.95;17.02;;;8.00;99.90;;;;;;4879695;29;20425;-95
2023/04/12 07:46:38;;;;;;;23.20;19.67;;;8.00;99.90;;;;;;4880012;29;20429;-93
2023/04/12 07:49:04;;;;;;;20.15;17.95;;;8.20;99.90;;;;;;4879886;29;20424;-94
2023/04/12 07:51:35;;;;;;;18.90;16.93;;;8.40;99.90;;;;;;4880009;29;20433;-94
2023/04/12 07:54:01;;;;;;;20.33;17.90;;;8.10;99.90;;;;;;4879316;29;20453;-93
2023/04/12 07:56:27;;;;;;;22.10;19.70;;;8.50;99.90;;;;;;4867162;29;20419;-94
2023/04/12 07:58:53;;;;;;;22.17;19.67;;;8.80;99.90;;;;;;4859954;29;20479;-96
2023/04/12 08:01:18;;;;;;;20.70;18.60;;;8.10;99.90;;;;;;4859603;29;20455;-94
2023/04/12 08:03:44;;;;;;;23.10;19.87;;;8.20;99.90;;;;;;4862141;29;20813;-93
2023/04/12 08:06:10;;;;;;;24.23;21.53;;;8.20;99.90;;;;;;4859375;29;20419;-93
2023/04/12 08:08:36;;;;;;;23.35;20.85;;;8.60;99.90;;;;;;4860511;29;20423;-94
2023/04/12 08:11:03;;;;;;;20.43;18.40;;;8.40;99.90;;;;;;4859468;29;20426;-94
2023/04/12 08:13:32;;;;;;;21.27;19.17;;;8.30;99.90;;;;;;4859562;29;20947;-94
2023/04/12 08:15:58;;;;;;;22.73;19.73;;;8.80;99.90;;;;;;4878181;29;20445;-94
2023/04/12 08:18:24;;;;;;;21.50;19.40;;;8.60;99.90;;;;;;4877433;29;20425;-93
2023/04/12 08:20:49;;;;;;;21.13;19.03;;;8.40;99.90;;;;;;4872647;29;20454;-95
2023/04/12 08:23:16;;;;;;;21.90;19.00;;;8.50;99.90;;;;;;4858951;29;20518;-93
2023/04/12 08:25:42;;;;;;;25.42;20.08;;;8.40;99.90;;;;;;4875070;29;20505;-93
2023/04/12 08:28:08;;;;;;;20.42;18.33;;;8.70;99.90;;;;;;4861144;29;20875;-93
2023/04/12 08:30:43;;;;;;;20.00;18.00;;;8.60;99.90;;;;;;4860988;29;20776;-95
2023/04/12 08:33:11;;;;;;;22.75;19.20;;;8.80;99.90;;;;;;4862299;29;20882;-95
2023/04/12 08:35:59;;;;;;;20.20;18.10;;;8.60;99.90;;;;;;4883738;29;20472;-94
2023/04/12 08:38:25;;;;;;;19.15;17.10;;;8.70;99.90;;;;;;4875274;29;20506;-95
2023/04/12 08:40:56;;;;;;;17.37;15.53;;;8.50;99.90;;;;;;4882391;29;20449;-94
2023/04/12 08:43:59;;;;;;;18.20;15.43;;;8.70;99.90;;;;;;4881161;29;20422;-94
2023/04/12 08:46:30;;;;;;;17.83;15.00;;;8.50;99.90;;;;;;4861289;29;20424;-94
2023/04/12 08:48:59;;;;;;;19.00;15.10;;;8.30;99.90;;;;;;4874958;29;20911;-94
2023/04/12 08:51:38;;;;;;;;;;;;;;;;;;;;;
2023/04/12 08:54:28;;;;;;;12.20;10.85;;;8.80;99.90;;;;;;4903425;29;21010;-94
2023/04/12 09:00:13;;;;;;;17.35;11.40;;;8.90;99.90;;;;;;4911512;29;20500;-94
2023/04/12 09:02:45;;;;;;;11.60;9.18;;;9.20;99.90;;;;;;4883663;29;21361;-95
2023/04/12 09:05:13;;;;;;;7.65;6.50;;;9.30;99.90;;;;;;4881908;29;20477;-94
2023/04/12 09:07:39;;;;;;;8.60;6.93;;;9.40;99.90;;;;;;4880493;29;20926;-94
2023/04/12 09:10:05;;;;;;;7.40;6.65;;;10.10;99.90;;;;;;4876598;29;20436;-95
2023/04/12 09:12:31;;;;;;;8.57;5.90;;;9.70;99.90;;;;;;4880021;29;20409;-96
2023/04/12 09:15:17;;;;;;;6.35;4.97;;;10.10;99.90;;;;;;4880119;29;20451;-95
2023/04/12 09:17:47;;;;;;;8.35;5.70;;;9.90;99.90;;;;;;4883435;29;20481;-95
2023/04/12 09:20:34;;;;;;;6.70;4.67;;;10.40;99.90;;;;;;4882199;29;20476;-95
2023/04/12 09:23:42;;;;;;;;;;;;;;;;;;;;;
2023/04/12 09:27:24;;;;;;;7.07;4.10;;;10.50;99.90;;;;;;4900070;29;20548;-95
2023/04/12 09:30:06;;;;;;;5.80;4.13;;;10.80;99.90;;;;;;4825581;29;20542;-94
2023/04/12 09:32:42;;;;;;;;;;;;;;;;;;;;;
2023/04/12 09:35:11;;;;;;;5.95;3.28;;;11.00;99.90;;;;;;4894838;29;20448;-93
2023/04/12 09:37:47;;;;;;;6.57;3.88;;;11.10;99.90;;;;;;4880621;29;20790;-95
2023/04/12 09:43:17;;;;;;;5.63;3.07;;;11.30;99.90;;;;;;4874779;29;20419;-95
2023/04/12 09:45:49;;;;;;;6.47;3.40;;;11.60;99.90;;;;;;4862595;29;21027;-95
2023/04/12 09:48:32;;;;;;;6.18;2.90;;;11.50;99.90;;;;;;4878466;29;20433;-95
2023/04/12 09:51:12;;;;;;;8.00;3.22;;;11.50;99.90;;;;;;4880427;29;20438;-95
2023/04/12 09:53:42;;;;;;;7.10;3.08;;;12.00;99.90;;;;;;4879471;29;20663;-94
2023/04/12 09:56:08;;;;;;;9.88;1.98;;;12.20;99.90;;;;;;4880517;29;20807;-95
2023/04/12 09:58:35;;;;;;;7.15;1.40;;;12.50;99.90;;;;;;4879837;29;20531;-93
2023/04/12 10:01:05;;;;;;;7.60;1.70;;;12.70;99.90;;;;;;4878089;29;20421;-94
2023/04/12 10:03:32;;;;;;;7.80;1.73;;;12.90;99.90;;;;;;4878248;29;20750;-94
2023/04/12 10:05:58;;;;;;;9.77;2.10;;;12.90;99.90;;;;;;4875709;29;20419;-93
2023/04/12 10:08:25;;;;;;;11.03;2.57;;;13.00;99.90;;;;;;4877653;29;20422;-93
2023/04/12 10:10:52;;;;;;;10.52;1.88;;;13.50;99.90;;;;;;4876022;29;20491;-93
2023/04/12 10:13:19;;;;;;;8.05;1.70;;;13.70;99.90;;;;;;4879325;29;20411;-93
2023/04/12 10:15:49;;;;;;;8.98;1.85;;;13.20;99.90;;;;;;4879426;29;20509;-93
2023/04/12 10:18:17;;;;;;;10.60;2.15;;;13.20;99.90;;;;;;4880391;29;20466;-92
2023/04/12 10:20:44;;;;;;;10.35;1.73;;;13.00;99.90;;;;;;4880593;29;20413;-94
2023/04/12 10:23:11;;;;;;;10.40;2.03;;;13.10;99.90;;;;;;4879200;29;20557;-93
2023/04/12 10:25:39;;;;;;;12.70;1.60;;;12.80;99.90;;;;;;4880035;29;20456;-92
2023/04/12 10:28:20;;;;;;;12.15;2.00;;;12.70;99.90;;;;;;4862609;29;20478;-91
2023/04/12 10:30:51;;;;;;;12.52;1.50;;;12.80;99.90;;;;;;4876753;29;20563;-92
2023/04/12 10:33:19;;;;;;;11.60;1.92;;;12.90;99.90;;;;;;4876770;29;20881;-91
2023/04/12 10:36:01;;;;;;;9.20;1.65;;;13.30;99.90;;;;;;4876036;29;20447;-92
2023/04/12 10:38:31;;;;;;;10.37;1.47;;;13.80;99.90;;;;;;4877222;29;20427;-92
2023/04/12 10:41:19;;;;;;;9.13;1.30;;;14.30;99.90;;;;;;4875693;29;20810;-91
2023/04/12 10:43:50;;;;;;;8.77;1.30;;;14.60;99.90;;;;;;4876650;29;20435;-92
2023/04/12 10:46:37;;;;;;;9.43;1.42;;;15.00;99.90;;;;;;4876649;29;20469;-91
2023/04/12 10:49:13;;;;;;;9.77;1.60;;;15.20;97.50;;;;;;4875621;29;20431;-92
2023/04/12 10:52:02;;;;;;;9.95;1.60;;;15.60;99.90;;;;;;4875678;29;20795;-93
2023/04/12 10:54:28;;;;;;;11.60;1.60;;;15.40;99.10;;;;;;4873712;29;20474;-92
2023/04/12 10:56:54;;;;;;;9.60;1.60;;;15.80;99.90;;;;;;4874748;29;20470;-91
2023/04/12 10:59:20;;;;;;;10.63;1.23;;;16.20;90.40;;;;;;4875000;29;20415;-89
2023/04/12 11:02:08;;;;;;;12.60;2.00;;;16.40;92.30;;;;;;4878729;29;20421;-90
2023/04/12 11:04:34;;;;;;;10.85;1.40;;;16.40;85.50;;;;;;4879224;29;20774;-89
2023/04/12 11:07:05;;;;;;;9.35;1.40;;;16.30;86.50;;;;;;4872130;29;20502;-91
2023/04/12 11:09:56;;;;;;;8.65;1.35;;;16.00;91.80;;;;;;4870828;29;20504;-92
2023/04/12 11:12:26;;;;;;;9.40;1.33;;;16.10;91.40;;;;;;4871496;29;20436;-91
2023/04/12 11:14:51;;;;;;;10.25;1.58;;;16.10;70.00;;;;;;4867689;29;20486;-89
2023/04/12 11:17:19;;;;;;;8.57;1.10;;;16.00;77.10;;;;;;4868798;29;20458;-89
2023/04/12 11:19:56;;;;;;;11.88;1.70;;;16.10;84.00;;;;;;4875313;29;20482;-90
2023/04/12 11:22:24;;;;;;;9.73;1.30;;;16.10;96.50;;;;;;4858448;29;20422;-90
2023/04/12 11:24:54;;;;;;;9.95;1.40;;;16.10;89.50;;;;;;4874557;29;20427;-90
2023/04/12 11:27:22;;;;;;;9.10;1.42;;;16.00;69.40;;;;;;4875395;29;20498;-91
2023/04/12 11:29:53;;;;;;;10.10;1.10;;;15.60;76.00;;;;;;4874892;29;20498;-90
2023/04/12 11:32:21;;;;;;;14.00;1.60;;;15.50;72.40;;;;;;4874713;29;20514;-89
2023/04/12 11:34:47;;;;;;;9.85;1.65;;;15.20;76.80;;;;;;4875713;29;20445;-89
2023/04/12 11:37:13;;;;;;;8.20;1.40;;;14.80;88.80;;;;;;4874184;29;20415;-89
2023/04/12 11:39:41;;;;;;;11.45;1.77;;;14.80;88.90;;;;;;4875304;29;21011;-90
2023/04/12 11:42:12;;;;;;;9.85;1.23;;;14.50;90.90;;;;;;4877803;29;20752;-89
2023/04/12 11:44:40;;;;;;;8.38;1.35;;;14.00;90.70;;;;;;4878139;29;20440;-90
2023/04/12 11:47:15;;;;;;;10.15;1.40;;;13.90;92.30;;;;;;4874065;29;20494;-91
2023/04/12 11:49:49;;;;;;;13.00;3.25;;;13.70;98.30;;;;;;4874479;29;20422;-90
2023/04/12 11:52:16;;;;;;;11.90;1.55;;;13.70;99.20;;;;;;4875855;29;21000;-89
2023/04/12 11:54:44;;;;;;;8.25;1.13;;;14.00;99.90;;;;;;4874417;29;20439;-90
2023/04/12 11:57:15;;;;;;;10.05;1.38;;;14.40;99.80;;;;;;4878621;29;20416;-90
2023/04/12 11:59:48;;;;;;;7.28;1.10;;;14.80;99.90;;;;;;4877341;29;20429;-89
2023/04/12 12:02:16;;;;;;;11.95;2.00;;;15.30;95.30;;;;;;4877994;29;20429;-89
2023/04/12 12:04:45;;;;;;;11.47;1.60;;;15.50;95.00;;;;;;4878190;29;20477;-90
2023/04/12 12:07:13;;;;;;;9.10;1.45;;;15.60;89.80;;;;;;4877685;29;20910;-89
2023/04/12 12:09:40;;;;;;;13.65;2.08;;;15.50;69.40;;;;;;4878257;29;20428;-89
2023/04/12 12:12:09;;;;;;;10.25;1.20;;;15.10;84.90;;;;;;4877492;29;20504;-91
2023/04/12 12:14:35;;;;;;;11.45;1.65;;;15.60;83.70;;;;;;4893437;29;20440;-89
2023/04/12 12:17:02;;;;;;;8.65;1.23;;;15.40;80.30;;;;;;4877390;29;20485;-88
2023/04/12 12:19:29;;;;;;;13.80;1.87;;;15.00;89.70;;;;;;4877971;29;20475;-89
2023/04/12 12:22:13;;;;;;;13.07;1.77;;;15.10;93.10;;;;;;4877775;29;20495;-90
2023/04/12 12:25:05;;;;;;;9.48;1.05;;;15.10;96.60;;;;;;4877285;29;20469;-91
2023/04/12 12:27:36;;;;;;;12.63;1.52;;;15.80;69.50;;;;;;4868337;29;20515;-87
2023/04/12 12:30:03;;;;;;;12.38;1.60;;;16.10;87.70;;;;;;4862001;29;20437;-91
2023/04/12 12:32:33;;;;;;;10.98;1.80;;;16.10;77.60;;;;;;4868486;29;20449;-89
2023/04/12 12:35:00;;;;;;;13.25;1.42;;;16.20;79.80;;;;;;4881519;29;20445;-90
2023/04/12 12:37:26;;;;;;;9.25;1.30;;;16.10;77.20;;;;;;4876276;29;20435;-91
2023/04/12 12:39:59;;;;;;;9.98;1.33;;;15.90;70.20;;;;;;4878807;29;20419;-91
2023/04/12 12:42:25;;;;;;;9.63;1.58;;;15.40;80.90;;;;;;4877820;29;20795;-90
2023/04/12 12:44:51;;;;;;;9.60;1.42;;;15.70;77.20;;;;;;4878176;29;20832;-90
2023/04/12 12:47:16;;;;;;;10.50;1.13;;;15.80;84.60;;;;;;4877678;29;20870;-90
2023/04/12 12:49:42;;;;;;;10.77;1.10;;;16.10;66.20;;;;;;4878359;29;20431;-90
2023/04/12 12:52:08;;;;;;;9.00;1.20;;;16.30;64.00;;;;;;4878389;29;20900;-92
2023/04/12 12:54:35;;;;;;;7.82;1.23;;;15.90;62.30;;;;;;4877754;29;20444;-91
2023/04/12 12:57:02;;;;;;;8.52;1.20;;;15.70;65.70;;;;;;4878753;29;20418;-90
2023/04/12 12:59:28;;;;;;;8.07;1.23;;;15.50;67.70;;;;;;4876640;29;20438;-89
2023/04/12 13:01:53;;;;;;;7.10;1.00;;;15.60;65.40;;;;;;4878957;29;20853;-91
2023/04/12 13:04:19;;;;;;;8.82;0.85;;;15.70;61.50;;;;;;4890537;29;20496;-93
2023/04/12 13:06:45;;;;;;;7.85;0.80;;;15.60;61.90;;;;;;4900335;29;21018;-92
2023/04/12 13:09:11;;;;;;;5.75;0.70;;;16.10;64.80;;;;;;4899775;29;20419;-91
2023/04/12 13:11:36;;;;;;;4.23;0.60;;;16.00;58.70;;;;;;4899441;29;20431;-91
2023/04/12 13:14:02;;;;;;;6.33;0.60;;;16.00;59.90;;;;;;4899786;29;20446;-90
2023/04/12 13:16:28;;;;;;;6.85;0.70;;;16.50;55.40;;;;;;4899034;29;20548;-89
2023/04/12 13:18:54;;;;;;;7.47;1.07;;;16.50;56.40;;;;;;4871941;29;20943;-91
2023/04/12 13:21:20;;;;;;;3.67;0.40;;;16.30;57.60;;;;;;4876718;29;20426;-89
2023/04/12 13:23:46;;;;;;;3.97;0.63;;;16.60;50.80;;;;;;4877766;29;20423;-93
2023/04/12 13:26:12;;;;;;;4.23;0.50;;;16.40;54.00;;;;;;4874363;29;20506;-91
2023/04/12 13:28:37;;;;;;;5.07;0.60;;;16.70;51.30;;;;;;4877750;29;20818;-90
2023/04/12 13:31:03;;;;;;;4.68;0.50;;;17.10;50.20;;;;;;4883557;29;20539;-90
2023/04/12 13:33:29;;;;;;;5.80;0.60;;;17.30;52.40;;;;;;4880120;29;20505;-91
2023/04/12 13:35:55;;;;;;;5.50;0.50;;;17.40;51.80;;;;;;4879346;29;20476;-90
2023/04/12 13:38:21;;;;;;;5.13;0.40;;;17.60;51.40;;;;;;4880006;29;20453;-92
2023/04/12 13:40:46;;;;;;;5.97;0.67;;;17.70;48.00;;;;;;4880314;29;20433;-90